NOAA Weather Radio

Lightning Safety

Turn Around Don't Drown
Storm Ready
SkyWarn
WACO REGIONAL AIRPORT, TX, United States (KACT) 31-36N 97-13W 151M
Sep 02, 2015 - 04:51 PM EDT / 2015.09.02 2051 UTC
Wind: from the ESE (110 degrees) at 8 MPH (7 KT):0
Visibility: 10 mile(s):0
Sky conditions: partly cloudy
Temperature: 91.0 F (32.8 C)
Dew Point: 64.0 F (17.8 C)
Relative Humidity: 40%
Pressure (altimeter): 29.97 in. Hg (1014 hPa)
Pressure tendency: 0.08 inches (2.6 hPa) lower than three hours ago
ob: KACT 022051Z 11007KT 10SM SCT055 33/18 A2997 RMK AO2 SLP140 T03280178 58026
cycle: 21